Portada
METAR-TAF:

METAR-TAF

Aeroports :

Aeroport de Reus

Reus, Espanya

latitud: 41-09N, longitud: 001-10E, altitud: 71 m

Observació

L'informe es va fer fa 2 hores i 34 minuts, a les 05:00 UTC
Vent 3 kt del Nord
Temperatura 22°C
Humitat 88%
Pressió 1016 hPa
Visibilitat 10 km o més
Escasses núvols a una alçada de 4000 ft

METAR: LERS 210500Z 36003KT 9999 FEW040 22/20 Q1016

Hora: 09:34 (07:34 UTC)

Pronòstic

L'informe es va fer fa 5 hores i 34 minuts, a les 02:00 UTC
Pronòstic vàlid del 21 a les 03 UTC al 22 a les 03 UTC
Vent 3 kt amb direcció variable
Visibilitat 10 km o més
Escasses núvols a una alçada de 4000 ft
Evolucionant progressivament
l' 21 a les 08 UTC al 21 a les 11 UTC
Vent 8 kt del Sud
Evolucionant progressivament
l' 21 a les 18 UTC al 21 a les 21 UTC
Vent 3 kt amb direcció variable

TAF: LERS 210200Z 2103/2203 VRB03KT 9999 FEW040 TX34/2113Z TN21/2105Z BECMG 2108/2111 18008KT BECMG 2118/2121 VRB03KT

Observacions i pronòstics meteorològics de més de 4000 aeroports (METAR i TAF).

Les estacions disponibles són els punts grocs i vermells al mapa.

Posi el ratolí al punt desitjat per veure el nom de l'estació.

Feu clic per veure les observacions i els pronòstics meteorològics.

Per canviar el mapa: feu clic els botons verds amb una creu de color negre per apropar; al botó verd amb un guió per allunyar la imatge; o en les fletxes verdes per a mapes adjacents.


METAR-TAF: